sensor_id;sensor_type;location;lat;lon;timestamp;P1;durP1;ratioP1;P2;durP2;ratioP2
78925;SDS011;68321;51.276;7.208;2023-06-22T00:00:59;8.32;;;4.70;;
78925;SDS011;68321;51.276;7.208;2023-06-22T00:03:25;7.70;;;5.15;;
78925;SDS011;68321;51.276;7.208;2023-06-22T00:05:53;8.05;;;4.63;;
78925;SDS011;68321;51.276;7.208;2023-06-22T00:08:20;7.65;;;4.88;;
78925;SDS011;68321;51.276;7.208;2023-06-22T00:10:47;5.53;;;4.32;;
78925;SDS011;68321;51.276;7.208;2023-06-22T00:13:12;6.75;;;3.95;;
78925;SDS011;68321;51.276;7.208;2023-06-22T00:15:39;6.80;;;4.60;;
78925;SDS011;68321;51.276;7.208;2023-06-22T00:18:08;9.68;;;4.82;;
78925;SDS011;68321;51.276;7.208;2023-06-22T00:20:34;5.47;;;3.88;;
78925;SDS011;68321;51.276;7.208;2023-06-22T00:23:02;7.68;;;4.35;;
78925;SDS011;68321;51.276;7.208;2023-06-22T00:25:33;5.78;;;4.57;;
78925;SDS011;68321;51.276;7.208;2023-06-22T00:27:59;7.40;;;4.22;;
78925;SDS011;68321;51.276;7.208;2023-06-22T00:30:24;6.53;;;4.28;;
78925;SDS011;68321;51.276;7.208;2023-06-22T00:32:50;5.72;;;4.20;;
78925;SDS011;68321;51.276;7.208;2023-06-22T00:35:15;5.60;;;3.38;;
78925;SDS011;68321;51.276;7.208;2023-06-22T00:37:41;4.75;;;3.65;;
78925;SDS011;68321;51.276;7.208;2023-06-22T00:40:07;5.55;;;3.75;;
78925;SDS011;68321;51.276;7.208;2023-06-22T00:42:37;5.05;;;3.83;;
78925;SDS011;68321;51.276;7.208;2023-06-22T00:45:03;6.20;;;3.53;;
78925;SDS011;68321;51.276;7.208;2023-06-22T00:47:30;5.50;;;3.58;;
78925;SDS011;68321;51.276;7.208;2023-06-22T00:49:55;4.40;;;3.35;;
78925;SDS011;68321;51.276;7.208;2023-06-22T00:52:21;4.65;;;3.97;;
78925;SDS011;68321;51.276;7.208;2023-06-22T00:54:54;6.85;;;3.80;;
78925;SDS011;68321;51.276;7.208;2023-06-22T00:57:20;5.57;;;4.15;;
78925;SDS011;68321;51.276;7.208;2023-06-22T00:59:46;6.57;;;3.92;;
78925;SDS011;68321;51.276;7.208;2023-06-22T01:02:13;6.38;;;4.03;;
78925;SDS011;68321;51.276;7.208;2023-06-22T01:04:38;6.00;;;3.58;;
78925;SDS011;68321;51.276;7.208;2023-06-22T01:07:17;10.02;;;4.13;;
78925;SDS011;68321;51.276;7.208;2023-06-22T01:18:22;7.18;;;4.43;;
78925;SDS011;68321;51.276;7.208;2023-06-22T01:20:50;4.35;;;3.40;;
78925;SDS011;68321;51.276;7.208;2023-06-22T01:31:14;7.05;;;3.67;;
78925;SDS011;68321;51.276;7.208;2023-06-22T01:33:43;6.70;;;4.05;;
78925;SDS011;68321;51.276;7.208;2023-06-22T01:36:09;6.28;;;3.72;;
78925;SDS011;68321;51.276;7.208;2023-06-22T01:38:54;6.30;;;3.80;;
78925;SDS011;68321;51.276;7.208;2023-06-22T01:41:24;6.05;;;3.58;;
78925;SDS011;68321;51.276;7.208;2023-06-22T01:43:50;7.20;;;4.10;;
78925;SDS011;68321;51.276;7.208;2023-06-22T01:46:16;6.03;;;4.07;;
78925;SDS011;68321;51.276;7.208;2023-06-22T01:48:44;6.82;;;4.00;;
78925;SDS011;68321;51.276;7.208;2023-06-22T01:51:10;6.40;;;4.13;;
78925;SDS011;68321;51.276;7.208;2023-06-22T01:53:35;6.13;;;4.38;;
78925;SDS011;68321;51.276;7.208;2023-06-22T01:56:00;7.28;;;4.38;;
78925;SDS011;68321;51.276;7.208;2023-06-22T01:58:27;11.40;;;4.63;;
78925;SDS011;68321;51.276;7.208;2023-06-22T02:00:56;7.82;;;4.53;;
78925;SDS011;68321;51.276;7.208;2023-06-22T02:03:26;6.50;;;4.57;;
78925;SDS011;68321;51.276;7.208;2023-06-22T02:05:58;5.78;;;4.00;;
78925;SDS011;68321;51.276;7.208;2023-06-22T02:08:29;10.45;;;5.25;;
78925;SDS011;68321;51.276;7.208;2023-06-22T02:10:56;7.00;;;4.88;;
78925;SDS011;68321;51.276;7.208;2023-06-22T02:13:23;9.85;;;4.40;;
78925;SDS011;68321;51.276;7.208;2023-06-22T02:15:49;6.20;;;4.35;;
78925;SDS011;68321;51.276;7.208;2023-06-22T02:18:15;8.02;;;4.40;;
78925;SDS011;68321;51.276;7.208;2023-06-22T02:20:40;7.47;;;4.53;;
78925;SDS011;68321;51.276;7.208;2023-06-22T02:23:06;6.03;;;4.38;;
78925;SDS011;68321;51.276;7.208;2023-06-22T02:25:32;6.82;;;4.78;;
78925;SDS011;68321;51.276;7.208;2023-06-22T02:27:58;12.07;;;5.20;;
78925;SDS011;68321;51.276;7.208;2023-06-22T02:30:23;7.55;;;5.22;;
78925;SDS011;68321;51.276;7.208;2023-06-22T02:32:49;8.47;;;4.13;;
78925;SDS011;68321;51.276;7.208;2023-06-22T02:35:16;7.65;;;4.57;;
78925;SDS011;68321;51.276;7.208;2023-06-22T02:37:42;7.73;;;4.90;;
78925;SDS011;68321;51.276;7.208;2023-06-22T02:40:07;8.18;;;4.82;;
78925;SDS011;68321;51.276;7.208;2023-06-22T02:42:37;6.80;;;4.57;;
78925;SDS011;68321;51.276;7.208;2023-06-22T02:45:03;11.48;;;4.82;;
78925;SDS011;68321;51.276;7.208;2023-06-22T02:47:28;8.02;;;5.22;;
78925;SDS011;68321;51.276;7.208;2023-06-22T02:49:54;6.68;;;4.47;;
78925;SDS011;68321;51.276;7.208;2023-06-22T02:52:19;7.65;;;4.95;;
78925;SDS011;68321;51.276;7.208;2023-06-22T02:54:45;7.18;;;5.53;;
78925;SDS011;68321;51.276;7.208;2023-06-22T02:57:11;9.30;;;4.50;;
78925;SDS011;68321;51.276;7.208;2023-06-22T02:59:39;6.55;;;4.80;;
78925;SDS011;68321;51.276;7.208;2023-06-22T03:02:06;6.82;;;4.90;;
78925;SDS011;68321;51.276;7.208;2023-06-22T03:04:31;8.23;;;5.32;;
78925;SDS011;68321;51.276;7.208;2023-06-22T03:06:57;10.48;;;5.47;;
78925;SDS011;68321;51.276;7.208;2023-06-22T03:09:26;8.77;;;5.25;;
78925;SDS011;68321;51.276;7.208;2023-06-22T03:11:52;7.05;;;5.28;;
78925;SDS011;68321;51.276;7.208;2023-06-22T03:14:18;10.77;;;5.78;;
78925;SDS011;68321;51.276;7.208;2023-06-22T03:16:44;6.90;;;5.00;;
78925;SDS011;68321;51.276;7.208;2023-06-22T03:19:09;7.10;;;5.20;;
78925;SDS011;68321;51.276;7.208;2023-06-22T03:21:35;7.47;;;5.03;;
78925;SDS011;68321;51.276;7.208;2023-06-22T03:26:34;14.13;;;5.28;;
78925;SDS011;68321;51.276;7.208;2023-06-22T03:29:00;10.20;;;5.70;;
78925;SDS011;68321;51.276;7.208;2023-06-22T03:31:25;10.50;;;6.03;;
78925;SDS011;68321;51.276;7.208;2023-06-22T03:33:51;7.90;;;5.18;;
78925;SDS011;68321;51.276;7.208;2023-06-22T03:36:17;8.73;;;5.68;;
78925;SDS011;68321;51.276;7.208;2023-06-22T03:38:47;6.82;;;5.57;;
78925;SDS011;68321;51.276;7.208;2023-06-22T03:41:13;9.23;;;5.70;;
78925;SDS011;68321;51.276;7.208;2023-06-22T03:43:39;8.30;;;5.30;;
78925;SDS011;68321;51.276;7.208;2023-06-22T03:46:04;9.85;;;7.10;;
78925;SDS011;68321;51.276;7.208;2023-06-22T03:48:30;11.20;;;5.75;;
78925;SDS011;68321;51.276;7.208;2023-06-22T03:50:55;11.60;;;5.93;;
78925;SDS011;68321;51.276;7.208;2023-06-22T03:53:21;12.50;;;5.93;;
78925;SDS011;68321;51.276;7.208;2023-06-22T03:55:50;7.50;;;6.13;;
78925;SDS011;68321;51.276;7.208;2023-06-22T03:58:16;8.32;;;5.95;;
78925;SDS011;68321;51.276;7.208;2023-06-22T04:00:44;8.63;;;6.18;;
78925;SDS011;68321;51.276;7.208;2023-06-22T04:03:14;10.55;;;6.03;;
78925;SDS011;68321;51.276;7.208;2023-06-22T04:05:40;9.15;;;6.32;;
78925;SDS011;68321;51.276;7.208;2023-06-22T04:08:05;11.63;;;6.75;;
78925;SDS011;68321;51.276;7.208;2023-06-22T04:10:31;9.82;;;8.15;;
78925;SDS011;68321;51.276;7.208;2023-06-22T04:12:56;13.15;;;8.02;;
78925;SDS011;68321;51.276;7.208;2023-06-22T04:15:21;9.23;;;6.95;;
78925;SDS011;68321;51.276;7.208;2023-06-22T04:17:47;9.18;;;7.18;;
78925;SDS011;68321;51.276;7.208;2023-06-22T04:20:12;9.63;;;7.33;;
78925;SDS011;68321;51.276;7.208;2023-06-22T04:22:37;10.75;;;8.20;;
78925;SDS011;68321;51.276;7.208;2023-06-22T04:25:06;10.23;;;6.93;;
78925;SDS011;68321;51.276;7.208;2023-06-22T04:27:32;14.70;;;7.72;;
78925;SDS011;68321;51.276;7.208;2023-06-22T04:30:02;10.55;;;7.93;;
78925;SDS011;68321;51.276;7.208;2023-06-22T04:32:28;15.13;;;8.18;;
78925;SDS011;68321;51.276;7.208;2023-06-22T04:34:54;11.02;;;7.78;;
78925;SDS011;68321;51.276;7.208;2023-06-22T04:37:19;10.52;;;7.30;;
78925;SDS011;68321;51.276;7.208;2023-06-22T04:39:48;11.32;;;8.18;;
78925;SDS011;68321;51.276;7.208;2023-06-22T04:42:14;10.68;;;8.18;;
78925;SDS011;68321;51.276;7.208;2023-06-22T04:44:39;11.20;;;7.10;;
78925;SDS011;68321;51.276;7.208;2023-06-22T04:47:09;10.15;;;7.70;;
78925;SDS011;68321;51.276;7.208;2023-06-22T04:49:35;11.30;;;8.23;;
78925;SDS011;68321;51.276;7.208;2023-06-22T04:54:30;11.20;;;7.68;;
78925;SDS011;68321;51.276;7.208;2023-06-22T04:57:03;9.90;;;7.53;;
78925;SDS011;68321;51.276;7.208;2023-06-22T04:59:30;14.07;;;8.00;;
78925;SDS011;68321;51.276;7.208;2023-06-22T05:01:56;8.98;;;6.82;;
78925;SDS011;68321;51.276;7.208;2023-06-22T05:04:23;9.48;;;7.28;;
78925;SDS011;68321;51.276;7.208;2023-06-22T05:06:49;12.55;;;7.55;;
78925;SDS011;68321;51.276;7.208;2023-06-22T05:09:15;9.70;;;6.95;;
78925;SDS011;68321;51.276;7.208;2023-06-22T05:11:40;13.23;;;7.53;;
78925;SDS011;68321;51.276;7.208;2023-06-22T05:14:05;12.30;;;7.80;;
78925;SDS011;68321;51.276;7.208;2023-06-22T05:16:32;11.57;;;8.25;;
78925;SDS011;68321;51.276;7.208;2023-06-22T05:18:57;11.82;;;8.13;;
78925;SDS011;68321;51.276;7.208;2023-06-22T05:21:24;11.57;;;7.70;;
78925;SDS011;68321;51.276;7.208;2023-06-22T05:23:51;11.15;;;7.38;;
78925;SDS011;68321;51.276;7.208;2023-06-22T05:26:18;11.25;;;6.75;;
78925;SDS011;68321;51.276;7.208;2023-06-22T05:28:44;11.07;;;6.38;;
78925;SDS011;68321;51.276;7.208;2023-06-22T05:31:11;11.68;;;7.65;;
78925;SDS011;68321;51.276;7.208;2023-06-22T05:33:40;8.68;;;7.28;;
78925;SDS011;68321;51.276;7.208;2023-06-22T05:36:06;9.02;;;5.95;;
78925;SDS011;68321;51.276;7.208;2023-06-22T05:38:32;12.70;;;7.38;;
78925;SDS011;68321;51.276;7.208;2023-06-22T05:40:57;8.73;;;6.95;;
78925;SDS011;68321;51.276;7.208;2023-06-22T05:43:23;8.88;;;7.65;;
78925;SDS011;68321;51.276;7.208;2023-06-22T05:45:48;9.98;;;8.05;;
78925;SDS011;68321;51.276;7.208;2023-06-22T05:48:16;14.30;;;7.97;;
78925;SDS011;68321;51.276;7.208;2023-06-22T05:50:42;10.50;;;7.50;;
78925;SDS011;68321;51.276;7.208;2023-06-22T05:53:07;9.43;;;6.78;;
78925;SDS011;68321;51.276;7.208;2023-06-22T05:55:33;10.85;;;7.28;;
78925;SDS011;68321;51.276;7.208;2023-06-22T05:57:58;11.82;;;8.00;;
78925;SDS011;68321;51.276;7.208;2023-06-22T06:00:24;12.80;;;8.60;;
78925;SDS011;68321;51.276;7.208;2023-06-22T06:02:49;11.23;;;7.75;;
78925;SDS011;68321;51.276;7.208;2023-06-22T06:05:15;11.07;;;8.15;;
78925;SDS011;68321;51.276;7.208;2023-06-22T06:07:44;12.77;;;7.97;;
78925;SDS011;68321;51.276;7.208;2023-06-22T06:10:10;11.88;;;8.00;;
78925;SDS011;68321;51.276;7.208;2023-06-22T06:12:36;11.57;;;7.85;;
78925;SDS011;68321;51.276;7.208;2023-06-22T06:15:02;12.35;;;7.97;;
78925;SDS011;68321;51.276;7.208;2023-06-22T06:17:28;13.13;;;7.70;;
78925;SDS011;68321;51.276;7.208;2023-06-22T06:19:54;11.05;;;8.20;;
78925;SDS011;68321;51.276;7.208;2023-06-22T06:22:19;12.13;;;6.55;;
78925;SDS011;68321;51.276;7.208;2023-06-22T06:24:46;12.43;;;8.23;;
78925;SDS011;68321;51.276;7.208;2023-06-22T06:27:13;9.52;;;7.05;;
78925;SDS011;68321;51.276;7.208;2023-06-22T06:29:39;11.45;;;7.65;;
78925;SDS011;68321;51.276;7.208;2023-06-22T06:32:04;10.00;;;7.50;;
78925;SDS011;68321;51.276;7.208;2023-06-22T06:34:30;10.75;;;6.93;;
78925;SDS011;68321;51.276;7.208;2023-06-22T06:36:55;13.13;;;7.53;;
78925;SDS011;68321;51.276;7.208;2023-06-22T06:39:20;11.18;;;7.25;;
78925;SDS011;68321;51.276;7.208;2023-06-22T06:41:46;18.70;;;10.07;;
78925;SDS011;68321;51.276;7.208;2023-06-22T06:44:11;16.27;;;8.68;;
78925;SDS011;68321;51.276;7.208;2023-06-22T06:46:37;12.98;;;7.80;;
78925;SDS011;68321;51.276;7.208;2023-06-22T06:49:03;13.35;;;7.35;;
78925;SDS011;68321;51.276;7.208;2023-06-22T06:51:28;9.45;;;7.28;;
78925;SDS011;68321;51.276;7.208;2023-06-22T06:53:54;14.13;;;8.32;;
78925;SDS011;68321;51.276;7.208;2023-06-22T06:56:20;14.88;;;8.88;;
78925;SDS011;68321;51.276;7.208;2023-06-22T06:58:46;9.98;;;7.68;;
78925;SDS011;68321;51.276;7.208;2023-06-22T07:01:12;10.77;;;8.45;;
78925;SDS011;68321;51.276;7.208;2023-06-22T07:03:37;12.80;;;8.20;;
78925;SDS011;68321;51.276;7.208;2023-06-22T07:06:03;10.80;;;8.27;;
78925;SDS011;68321;51.276;7.208;2023-06-22T07:08:29;15.05;;;8.85;;
78925;SDS011;68321;51.276;7.208;2023-06-22T07:10:54;11.52;;;7.88;;
78925;SDS011;68321;51.276;7.208;2023-06-22T07:13:19;13.00;;;8.45;;
78925;SDS011;68321;51.276;7.208;2023-06-22T07:15:46;12.75;;;8.93;;
78925;SDS011;68321;51.276;7.208;2023-06-22T07:18:12;13.50;;;8.38;;
78925;SDS011;68321;51.276;7.208;2023-06-22T07:20:37;15.48;;;9.25;;
78925;SDS011;68321;51.276;7.208;2023-06-22T07:23:04;13.38;;;9.20;;
78925;SDS011;68321;51.276;7.208;2023-06-22T07:25:30;14.15;;;9.05;;
78925;SDS011;68321;51.276;7.208;2023-06-22T07:27:58;13.15;;;9.77;;
78925;SDS011;68321;51.276;7.208;2023-06-22T07:30:28;15.63;;;9.88;;
78925;SDS011;68321;51.276;7.208;2023-06-22T07:32:54;11.73;;;9.35;;
78925;SDS011;68321;51.276;7.208;2023-06-22T07:35:20;11.70;;;8.93;;
78925;SDS011;68321;51.276;7.208;2023-06-22T07:37:45;14.20;;;8.60;;
78925;SDS011;68321;51.276;7.208;2023-06-22T07:40:11;15.48;;;10.05;;
78925;SDS011;68321;51.276;7.208;2023-06-22T07:42:38;13.75;;;9.85;;
78925;SDS011;68321;51.276;7.208;2023-06-22T07:45:04;12.85;;;9.88;;
78925;SDS011;68321;51.276;7.208;2023-06-22T07:47:31;12.63;;;8.90;;
78925;SDS011;68321;51.276;7.208;2023-06-22T07:50:00;11.80;;;9.20;;
78925;SDS011;68321;51.276;7.208;2023-06-22T07:52:26;11.55;;;9.60;;
78925;SDS011;68321;51.276;7.208;2023-06-22T07:54:54;13.07;;;9.98;;
78925;SDS011;68321;51.276;7.208;2023-06-22T07:57:20;11.23;;;9.00;;
78925;SDS011;68321;51.276;7.208;2023-06-22T07:59:46;15.32;;;10.43;;
78925;SDS011;68321;51.276;7.208;2023-06-22T08:02:11;14.52;;;9.98;;
78925;SDS011;68321;51.276;7.208;2023-06-22T08:04:37;16.13;;;9.45;;
78925;SDS011;68321;51.276;7.208;2023-06-22T08:07:03;12.80;;;9.90;;
78925;SDS011;68321;51.276;7.208;2023-06-22T08:09:30;14.23;;;10.57;;
78925;SDS011;68321;51.276;7.208;2023-06-22T08:11:57;11.63;;;10.43;;
78925;SDS011;68321;51.276;7.208;2023-06-22T08:14:25;12.23;;;10.38;;
78925;SDS011;68321;51.276;7.208;2023-06-22T08:16:51;11.75;;;10.13;;
78925;SDS011;68321;51.276;7.208;2023-06-22T08:19:16;12.20;;;10.18;;
78925;SDS011;68321;51.276;7.208;2023-06-22T08:21:42;11.43;;;9.50;;
78925;SDS011;68321;51.276;7.208;2023-06-22T08:24:07;12.55;;;9.77;;
78925;SDS011;68321;51.276;7.208;2023-06-22T08:26:33;10.65;;;8.77;;
78925;SDS011;68321;51.276;7.208;2023-06-22T08:29:04;11.20;;;9.63;;
78925;SDS011;68321;51.276;7.208;2023-06-22T08:31:36;11.75;;;8.70;;
78925;SDS011;68321;51.276;7.208;2023-06-22T08:34:02;10.50;;;9.05;;
78925;SDS011;68321;51.276;7.208;2023-06-22T08:36:30;11.30;;;8.75;;
78925;SDS011;68321;51.276;7.208;2023-06-22T08:39:00;15.52;;;10.48;;
78925;SDS011;68321;51.276;7.208;2023-06-22T08:41:27;10.13;;;8.77;;
78925;SDS011;68321;51.276;7.208;2023-06-22T08:44:02;10.13;;;8.68;;
78925;SDS011;68321;51.276;7.208;2023-06-22T08:46:38;12.30;;;9.68;;
78925;SDS011;68321;51.276;7.208;2023-06-22T08:49:14;13.50;;;8.80;;
78925;SDS011;68321;51.276;7.208;2023-06-22T08:51:40;11.30;;;8.75;;
78925;SDS011;68321;51.276;7.208;2023-06-22T08:54:06;10.35;;;8.45;;
78925;SDS011;68321;51.276;7.208;2023-06-22T08:59:11;10.32;;;8.35;;
78925;SDS011;68321;51.276;7.208;2023-06-22T09:01:36;9.90;;;8.30;;
78925;SDS011;68321;51.276;7.208;2023-06-22T09:04:04;12.10;;;8.27;;
78925;SDS011;68321;51.276;7.208;2023-06-22T09:06:35;11.77;;;7.93;;
78925;SDS011;68321;51.276;7.208;2023-06-22T09:09:03;11.30;;;8.65;;
78925;SDS011;68321;51.276;7.208;2023-06-22T09:11:28;8.02;;;7.07;;
78925;SDS011;68321;51.276;7.208;2023-06-22T09:13:53;9.55;;;7.22;;
78925;SDS011;68321;51.276;7.208;2023-06-22T09:16:19;10.60;;;8.45;;
78925;SDS011;68321;51.276;7.208;2023-06-22T10:35:41;10.40;;;7.25;;
78925;SDS011;68321;51.276;7.208;2023-06-22T10:38:07;10.43;;;7.00;;
78925;SDS011;68321;51.276;7.208;2023-06-22T10:40:33;9.18;;;7.18;;
78925;SDS011;68321;51.276;7.208;2023-06-22T11:03:50;11.20;;;7.70;;
78925;SDS011;68321;51.276;7.208;2023-06-22T11:06:16;10.68;;;7.07;;
78925;SDS011;68321;51.276;7.208;2023-06-22T11:08:43;8.93;;;7.43;;
78925;SDS011;68321;51.276;7.208;2023-06-22T11:11:09;10.57;;;7.13;;
78925;SDS011;68321;51.276;7.208;2023-06-22T11:13:35;12.43;;;7.97;;
78925;SDS011;68321;51.276;7.208;2023-06-22T11:16:00;10.77;;;8.20;;
78925;SDS011;68321;51.276;7.208;2023-06-22T11:18:26;14.00;;;10.45;;
78925;SDS011;68321;51.276;7.208;2023-06-22T11:20:55;13.90;;;9.15;;
78925;SDS011;68321;51.276;7.208;2023-06-22T11:23:25;12.82;;;8.88;;
78925;SDS011;68321;51.276;7.208;2023-06-22T11:25:54;11.63;;;9.30;;
78925;SDS011;68321;51.276;7.208;2023-06-22T11:28:19;12.85;;;8.93;;
78925;SDS011;68321;51.276;7.208;2023-06-22T11:30:45;15.45;;;9.65;;
78925;SDS011;68321;51.276;7.208;2023-06-22T11:33:10;14.32;;;10.63;;
78925;SDS011;68321;51.276;7.208;2023-06-22T11:35:36;16.55;;;10.73;;
78925;SDS011;68321;51.276;7.208;2023-06-22T11:38:02;14.55;;;10.77;;
78925;SDS011;68321;51.276;7.208;2023-06-22T11:40:29;14.73;;;10.23;;
78925;SDS011;68321;51.276;7.208;2023-06-22T11:42:54;12.73;;;9.00;;
78925;SDS011;68321;51.276;7.208;2023-06-22T11:45:20;14.20;;;9.82;;
78925;SDS011;68321;51.276;7.208;2023-06-22T11:47:45;12.40;;;10.38;;
78925;SDS011;68321;51.276;7.208;2023-06-22T11:50:11;16.58;;;11.43;;
78925;SDS011;68321;51.276;7.208;2023-06-22T11:52:36;13.95;;;9.98;;
78925;SDS011;68321;51.276;7.208;2023-06-22T11:55:02;16.23;;;10.93;;
78925;SDS011;68321;51.276;7.208;2023-06-22T11:57:30;15.25;;;11.15;;
78925;SDS011;68321;51.276;7.208;2023-06-22T12:00:01;17.30;;;13.07;;
78925;SDS011;68321;51.276;7.208;2023-06-22T12:02:31;16.92;;;12.10;;
78925;SDS011;68321;51.276;7.208;2023-06-22T12:04:58;17.92;;;12.30;;
78925;SDS011;68321;51.276;7.208;2023-06-22T12:07:24;20.13;;;13.18;;
78925;SDS011;68321;51.276;7.208;2023-06-22T12:09:50;17.67;;;12.82;;
78925;SDS011;68321;51.276;7.208;2023-06-22T12:12:15;21.67;;;13.85;;
78925;SDS011;68321;51.276;7.208;2023-06-22T12:14:41;18.43;;;12.97;;
78925;SDS011;68321;51.276;7.208;2023-06-22T12:17:06;18.47;;;12.37;;
78925;SDS011;68321;51.276;7.208;2023-06-22T12:19:33;15.48;;;11.13;;
78925;SDS011;68321;51.276;7.208;2023-06-22T12:22:02;18.52;;;13.77;;
78925;SDS011;68321;51.276;7.208;2023-06-22T12:24:28;16.90;;;13.50;;
78925;SDS011;68321;51.276;7.208;2023-06-22T12:26:59;17.73;;;14.23;;
78925;SDS011;68321;51.276;7.208;2023-06-22T12:29:25;15.38;;;12.73;;
78925;SDS011;68321;51.276;7.208;2023-06-22T12:31:51;18.02;;;12.77;;
78925;SDS011;68321;51.276;7.208;2023-06-22T12:34:18;14.55;;;11.60;;
78925;SDS011;68321;51.276;7.208;2023-06-22T12:36:44;15.30;;;12.60;;
78925;SDS011;68321;51.276;7.208;2023-06-22T12:39:13;14.65;;;12.32;;
78925;SDS011;68321;51.276;7.208;2023-06-22T12:41:40;14.57;;;12.73;;
78925;SDS011;68321;51.276;7.208;2023-06-22T12:44:05;18.63;;;12.75;;
78925;SDS011;68321;51.276;7.208;2023-06-22T12:46:31;18.30;;;13.57;;
78925;SDS011;68321;51.276;7.208;2023-06-22T12:49:02;19.27;;;14.57;;
78925;SDS011;68321;51.276;7.208;2023-06-22T12:51:31;16.67;;;13.30;;
78925;SDS011;68321;51.276;7.208;2023-06-22T12:53:58;20.25;;;14.18;;
78925;SDS011;68321;51.276;7.208;2023-06-22T12:56:23;20.85;;;14.10;;
78925;SDS011;68321;51.276;7.208;2023-06-22T12:58:50;18.33;;;14.40;;
78925;SDS011;68321;51.276;7.208;2023-06-22T13:01:15;20.13;;;14.47;;
78925;SDS011;68321;51.276;7.208;2023-06-22T13:03:43;16.10;;;13.65;;
78925;SDS011;68321;51.276;7.208;2023-06-22T13:06:09;16.38;;;12.80;;
78925;SDS011;68321;51.276;7.208;2023-06-22T13:08:36;14.48;;;11.75;;
78925;SDS011;68321;51.276;7.208;2023-06-22T13:11:01;16.42;;;12.07;;
78925;SDS011;68321;51.276;7.208;2023-06-22T13:13:27;16.10;;;12.00;;
78925;SDS011;68321;51.276;7.208;2023-06-22T13:15:53;15.75;;;12.57;;
78925;SDS011;68321;51.276;7.208;2023-06-22T13:18:19;15.55;;;12.35;;
78925;SDS011;68321;51.276;7.208;2023-06-22T13:20:45;14.75;;;11.68;;
78925;SDS011;68321;51.276;7.208;2023-06-22T13:23:11;14.85;;;12.05;;
78925;SDS011;68321;51.276;7.208;2023-06-22T13:25:37;16.67;;;12.27;;
78925;SDS011;68321;51.276;7.208;2023-06-22T13:28:03;14.32;;;12.32;;
78925;SDS011;68321;51.276;7.208;2023-06-22T13:30:28;14.43;;;12.32;;
78925;SDS011;68321;51.276;7.208;2023-06-22T13:32:54;13.63;;;11.13;;
78925;SDS011;68321;51.276;7.208;2023-06-22T13:35:20;15.13;;;11.50;;
78925;SDS011;68321;51.276;7.208;2023-06-22T13:37:46;16.60;;;13.77;;
78925;SDS011;68321;51.276;7.208;2023-06-22T13:40:11;14.95;;;12.65;;
78925;SDS011;68321;51.276;7.208;2023-06-22T13:42:37;15.73;;;13.02;;
78925;SDS011;68321;51.276;7.208;2023-06-22T13:45:02;15.80;;;12.75;;
78925;SDS011;68321;51.276;7.208;2023-06-22T13:47:31;17.00;;;10.95;;
78925;SDS011;68321;51.276;7.208;2023-06-22T13:50:00;18.88;;;11.63;;
78925;SDS011;68321;51.276;7.208;2023-06-22T13:52:25;13.43;;;10.75;;
78925;SDS011;68321;51.276;7.208;2023-06-22T13:54:51;14.13;;;11.00;;
78925;SDS011;68321;51.276;7.208;2023-06-22T13:57:27;12.75;;;9.80;;
78925;SDS011;68321;51.276;7.208;2023-06-22T13:59:53;12.10;;;10.18;;
78925;SDS011;68321;51.276;7.208;2023-06-22T14:02:19;13.77;;;10.82;;
78925;SDS011;68321;51.276;7.208;2023-06-22T14:04:44;15.13;;;11.10;;
78925;SDS011;68321;51.276;7.208;2023-06-22T14:07:10;14.00;;;11.90;;
78925;SDS011;68321;51.276;7.208;2023-06-22T14:09:36;13.10;;;10.98;;
78925;SDS011;68321;51.276;7.208;2023-06-22T14:12:05;13.40;;;10.93;;
78925;SDS011;68321;51.276;7.208;2023-06-22T14:14:46;14.77;;;10.95;;
78925;SDS011;68321;51.276;7.208;2023-06-22T14:17:11;13.85;;;9.35;;
78925;SDS011;68321;51.276;7.208;2023-06-22T14:19:37;10.20;;;7.97;;
78925;SDS011;68321;51.276;7.208;2023-06-22T14:22:02;10.87;;;9.20;;
78925;SDS011;68321;51.276;7.208;2023-06-22T14:24:33;12.90;;;9.98;;
78925;SDS011;68321;51.276;7.208;2023-06-22T14:27:00;11.15;;;8.85;;
78925;SDS011;68321;51.276;7.208;2023-06-22T14:29:28;11.10;;;9.57;;
78925;SDS011;68321;51.276;7.208;2023-06-22T14:31:53;11.07;;;8.70;;
78925;SDS011;68321;51.276;7.208;2023-06-22T14:34:19;12.10;;;9.65;;
78925;SDS011;68321;51.276;7.208;2023-06-22T14:36:44;11.55;;;9.30;;
78925;SDS011;68321;51.276;7.208;2023-06-22T14:39:10;14.45;;;10.05;;
78925;SDS011;68321;51.276;7.208;2023-06-22T14:41:37;11.30;;;10.10;;
78925;SDS011;68321;51.276;7.208;2023-06-22T14:44:02;13.23;;;9.85;;
78925;SDS011;68321;51.276;7.208;2023-06-22T14:46:33;10.88;;;7.88;;
78925;SDS011;68321;51.276;7.208;2023-06-22T14:48:59;12.02;;;8.10;;
78925;SDS011;68321;51.276;7.208;2023-06-22T14:51:24;9.57;;;7.97;;
78925;SDS011;68321;51.276;7.208;2023-06-22T14:53:49;11.88;;;7.72;;
78925;SDS011;68321;51.276;7.208;2023-06-22T14:56:17;11.35;;;8.95;;
78925;SDS011;68321;51.276;7.208;2023-06-22T14:58:42;10.73;;;8.75;;
78925;SDS011;68321;51.276;7.208;2023-06-22T15:01:12;10.85;;;8.77;;
78925;SDS011;68321;51.276;7.208;2023-06-22T15:03:37;9.50;;;7.95;;
78925;SDS011;68321;51.276;7.208;2023-06-22T15:06:03;10.93;;;8.75;;
78925;SDS011;68321;51.276;7.208;2023-06-22T15:08:29;12.30;;;8.48;;
78925;SDS011;68321;51.276;7.208;2023-06-22T15:10:54;10.38;;;8.55;;
78925;SDS011;68321;51.276;7.208;2023-06-22T15:13:21;11.50;;;8.50;;
78925;SDS011;68321;51.276;7.208;2023-06-22T15:15:50;11.55;;;10.13;;
78925;SDS011;68321;51.276;7.208;2023-06-22T15:18:17;13.43;;;9.55;;
78925;SDS011;68321;51.276;7.208;2023-06-22T15:20:42;13.40;;;10.13;;
78925;SDS011;68321;51.276;7.208;2023-06-22T15:25:36;12.32;;;10.20;;
78925;SDS011;68321;51.276;7.208;2023-06-22T15:28:03;15.23;;;11.35;;
78925;SDS011;68321;51.276;7.208;2023-06-22T15:30:29;18.85;;;13.40;;
78925;SDS011;68321;51.276;7.208;2023-06-22T15:32:55;18.35;;;13.52;;
78925;SDS011;68321;51.276;7.208;2023-06-22T15:35:21;18.42;;;14.13;;
78925;SDS011;68321;51.276;7.208;2023-06-22T15:37:47;20.90;;;15.55;;
78925;SDS011;68321;51.276;7.208;2023-06-22T15:40:12;23.38;;;16.85;;
78925;SDS011;68321;51.276;7.208;2023-06-22T15:42:37;24.60;;;15.93;;
78925;SDS011;68321;51.276;7.208;2023-06-22T15:45:04;19.33;;;15.85;;
78925;SDS011;68321;51.276;7.208;2023-06-22T15:47:32;21.70;;;15.25;;
78925;SDS011;68321;51.276;7.208;2023-06-22T15:49:58;20.95;;;15.07;;
78925;SDS011;68321;51.276;7.208;2023-06-22T15:52:24;24.77;;;19.10;;
78925;SDS011;68321;51.276;7.208;2023-06-22T15:54:51;19.30;;;15.38;;
78925;SDS011;68321;51.276;7.208;2023-06-22T15:57:19;20.70;;;16.08;;
78925;SDS011;68321;51.276;7.208;2023-06-22T15:59:44;18.73;;;13.57;;
78925;SDS011;68321;51.276;7.208;2023-06-22T16:02:11;23.75;;;14.73;;
78925;SDS011;68321;51.276;7.208;2023-06-22T16:04:36;20.55;;;16.83;;
78925;SDS011;68321;51.276;7.208;2023-06-22T16:07:02;20.55;;;14.85;;
78925;SDS011;68321;51.276;7.208;2023-06-22T16:09:28;23.55;;;15.15;;
78925;SDS011;68321;51.276;7.208;2023-06-22T16:11:55;20.88;;;15.68;;
78925;SDS011;68321;51.276;7.208;2023-06-22T16:14:20;18.80;;;14.75;;
78925;SDS011;68321;51.276;7.208;2023-06-22T16:16:47;20.48;;;15.95;;
78925;SDS011;68321;51.276;7.208;2023-06-22T16:19:12;21.15;;;15.88;;
78925;SDS011;68321;51.276;7.208;2023-06-22T16:21:38;19.85;;;16.08;;
78925;SDS011;68321;51.276;7.208;2023-06-22T16:24:06;21.65;;;15.85;;
78925;SDS011;68321;51.276;7.208;2023-06-22T16:26:38;17.55;;;13.95;;
78925;SDS011;68321;51.276;7.208;2023-06-22T16:29:05;19.35;;;14.55;;
78925;SDS011;68321;51.276;7.208;2023-06-22T16:31:31;23.52;;;15.13;;
78925;SDS011;68321;51.276;7.208;2023-06-22T16:33:57;18.23;;;14.50;;